Time;durP1;ratioP1;P1;durP2;ratioP2;P2;SDS_P1;SDS_P2;PMS_P1;PMS_P2;Temp;Humidity;BMP_temperature;BMP_pressure;BME280_temperature;BME280_humidity;BME280_pressure;Samples;Min_cycle;Max_cycle;Signal;HPM_P1;HPM_P2
2022/07/14 00:00:26;;;;;;;3.70;1.08;;;;;;;23.68;44.42;102012.09;16134605;19;130951;-63
2022/07/14 00:05:48;;;;;;;3.22;1.00;;;;;;;23.69;44.40;101997.03;16137222;19;129936;-63
2022/07/14 00:11:11;;;;;;;1.90;0.65;;;;;;;23.66;44.11;101993.63;16133424;19;129540;-63
2022/07/14 00:16:33;;;;;;;3.00;0.90;;;;;;;23.65;44.16;102008.69;16135885;19;129536;-63
2022/07/14 00:21:55;;;;;;;2.78;0.80;;;;;;;23.65;44.48;102003.13;16136837;19;129692;-63
2022/07/14 00:27:16;;;;;;;1.45;0.68;;;;;;;23.65;44.35;102033.84;16137057;19;129596;-63
2022/07/14 00:32:38;;;;;;;3.42;0.70;;;;;;;23.65;44.33;102041.38;16127957;19;130197;-63
2022/07/14 00:38:00;;;;;;;3.05;0.82;;;;;;;23.63;44.53;102044.41;16135680;19;129715;-63
2022/07/14 00:43:22;;;;;;;2.92;0.80;;;;;;;23.64;44.55;102079.63;16133157;19;130034;-63
2022/07/14 00:48:43;;;;;;;1.25;0.63;;;;;;;23.63;44.52;102063.97;16132762;19;129729;-63
2022/07/14 00:54:05;;;;;;;1.85;0.60;;;;;;;23.62;44.45;102037.16;16128917;19;129953;-63
2022/07/14 00:59:27;;;;;;;1.50;0.60;;;;;;;23.62;44.43;102027.91;16144439;19;130324;-63
2022/07/14 01:04:49;;;;;;;2.17;0.52;;;;;;;23.61;44.35;102007.53;16148766;19;129159;-63
2022/07/14 01:10:11;;;;;;;0.82;0.40;;;;;;;23.60;44.13;101989.06;16145951;19;129235;-63
2022/07/14 01:15:33;;;;;;;2.17;0.50;;;;;;;23.59;44.48;101995.75;16149115;19;132021;-63
2022/07/14 01:20:55;;;;;;;1.85;0.77;;;;;;;23.58;44.36;101991.28;16148067;19;129644;-63
2022/07/14 01:26:17;;;;;;;2.30;0.55;;;;;;;23.58;44.61;101988.47;16148051;19;129540;-63
2022/07/14 01:31:38;;;;;;;0.82;0.50;;;;;;;23.56;44.29;102018.56;16144201;19;128916;-63
2022/07/14 01:37:00;;;;;;;1.23;0.50;;;;;;;23.57;44.48;102045.41;16145732;19;130265;-63
2022/07/14 01:42:22;;;;;;;0.88;0.30;;;;;;;23.57;44.14;102055.75;16145998;19;129740;-63
2022/07/14 01:47:44;;;;;;;1.50;0.50;;;;;;;23.55;44.37;102025.25;16147182;19;129658;-63
2022/07/14 01:53:05;;;;;;;1.67;0.50;;;;;;;23.54;44.35;102020.78;16141788;19;130285;-63
2022/07/14 01:58:27;;;;;;;1.67;0.50;;;;;;;23.54;44.47;102012.41;16143631;19;130219;-63
2022/07/14 02:03:49;;;;;;;0.90;0.32;;;;;;;23.54;44.43;101986.44;16146187;19;129325;-63
2022/07/14 02:09:11;;;;;;;1.70;0.50;;;;;;;23.53;44.56;101995.91;16144376;19;129151;-63
2022/07/14 02:14:33;;;;;;;2.63;0.50;;;;;;;23.52;44.44;102003.41;16142750;19;129287;-63
2022/07/14 02:19:55;;;;;;;1.35;0.40;;;;;;;23.52;44.45;102020.19;16146217;19;129686;-63
2022/07/14 02:25:17;;;;;;;1.33;0.40;;;;;;;23.50;44.58;102014.03;16143962;19;129271;-63
2022/07/14 02:30:39;;;;;;;1.90;0.55;;;;;;;23.51;44.23;101990.56;16141312;19;129470;-63
2022/07/14 02:36:01;;;;;;;2.17;0.47;;;;;;;23.49;44.52;101976.84;16136006;19;130456;-63
2022/07/14 02:41:22;;;;;;;1.67;0.45;;;;;;;23.47;44.41;101959.50;16143167;19;129356;-63
2022/07/14 02:46:44;;;;;;;1.65;0.60;;;;;;;23.48;44.24;101958.41;16141256;19;129778;-63
2022/07/14 02:52:06;;;;;;;2.42;0.57;;;;;;;23.46;44.16;101954.19;16135008;19;130915;-63
2022/07/14 02:57:28;;;;;;;3.92;0.75;;;;;;;23.45;44.32;101969.25;16139012;19;129118;-63
2022/07/14 03:02:50;;;;;;;4.15;0.60;;;;;;;23.45;44.25;101960.88;16134430;19;130270;-62
2022/07/14 03:08:12;;;;;;;1.35;0.50;;;;;;;23.44;43.74;101950.78;16140379;19;130619;-62
2022/07/14 03:13:35;;;;;;;1.92;0.63;;;;;;;23.42;44.00;101964.16;16135473;19;128907;-62
2022/07/14 03:18:56;;;;;;;1.83;0.20;;;;;;;23.41;44.12;101982.88;16139570;19;130657;-63
2022/07/14 03:24:20;;;;;;;1.13;0.40;;;;;;;23.40;43.84;101988.69;16139896;19;131101;-63
2022/07/14 03:29:42;;;;;;;3.20;0.80;;;;;;;23.39;43.79;101976.69;16136600;19;129454;-63
2022/07/14 03:35:05;;;;;;;1.50;0.55;;;;;;;23.39;44.09;101987.00;16140450;19;129326;-63
2022/07/14 03:40:27;;;;;;;2.45;0.60;;;;;;;23.38;43.98;101988.13;16139777;19;129088;-63
2022/07/14 03:45:49;;;;;;;7.18;0.63;;;;;;;23.38;44.32;101988.94;16138491;19;129539;-63
2022/07/14 03:51:10;;;;;;;2.78;0.52;;;;;;;23.39;43.97;101967.44;16131245;19;130294;-62
2022/07/14 03:56:32;;;;;;;1.20;0.50;;;;;;;23.37;43.63;101966.88;16136636;19;129499;-63
2022/07/14 04:01:54;;;;;;;2.85;0.77;;;;;;;23.37;43.93;101950.13;16131979;19;129263;-63
2022/07/14 04:07:16;;;;;;;3.50;0.77;;;;;;;23.35;44.06;101940.06;16134672;19;129290;-62
2022/07/14 04:12:38;;;;;;;3.00;0.70;;;;;;;23.35;43.77;101931.69;16134158;19;131033;-62
2022/07/14 04:17:59;;;;;;;5.10;1.10;;;;;;;23.35;44.00;101945.63;16137797;19;129464;-62
2022/07/14 04:23:22;;;;;;;2.28;0.50;;;;;;;23.34;43.55;101941.16;16138219;19;129550;-63
2022/07/14 04:28:44;;;;;;;2.53;0.75;;;;;;;23.34;44.00;101951.47;16135434;19;129779;-63
2022/07/14 04:34:05;;;;;;;2.80;0.85;;;;;;;23.34;43.68;101943.94;16142751;19;128993;-63
2022/07/14 04:39:27;;;;;;;3.90;0.70;;;;;;;23.33;43.47;101944.19;16154530;19;129264;-63
2022/07/14 04:44:50;;;;;;;4.30;1.10;;;;;;;23.32;43.47;101943.34;16151916;19;129187;-63
2022/07/14 04:55:53;;;;;;;4.70;0.82;;;;;;;23.31;43.42;101957.56;16150738;19;129143;-63
2022/07/14 05:01:15;;;;;;;4.90;0.82;;;;;;;23.31;43.42;101963.16;16147714;19;129391;-63
2022/07/14 05:06:37;;;;;;;4.05;0.73;;;;;;;23.29;43.36;101963.41;16149308;19;129371;-63
2022/07/14 05:12:02;;;;;;;5.90;0.80;;;;;;;23.31;43.42;101963.16;16147914;19;129061;-63
2022/07/14 05:17:24;;;;;;;4.63;1.23;;;;;;;23.28;43.33;101964.50;16151666;19;129286;-63
2022/07/14 05:22:47;;;;;;;2.75;0.70;;;;;;;23.28;43.23;101974.81;16149173;19;129450;-63
2022/07/14 05:28:08;;;;;;;13.23;2.03;;;;;;;23.26;42.88;101977.88;16145681;19;129096;-62
2022/07/14 05:33:30;;;;;;;12.90;2.67;;;;;;;23.10;41.66;101973.94;16143475;19;129659;-62
2022/07/14 05:38:53;;;;;;;23.30;2.70;;;;;;;22.95;41.50;101974.53;16149418;19;129544;-63
2022/07/14 05:44:14;;;;;;;12.90;2.85;;;;;;;22.84;42.15;101975.41;16143827;19;129043;-62
2022/07/14 05:49:39;;;;;;;15.65;2.83;;;;;;;22.82;41.90;101988.75;16146843;19;129200;-63
2022/07/14 05:55:01;;;;;;;15.18;3.22;;;;;;;22.79;42.05;101980.88;16147634;19;131889;-63
2022/07/14 06:00:23;;;;;;;36.00;4.00;;;;;;;22.79;41.75;101984.53;16140646;19;129419;-62
2022/07/14 06:05:45;;;;;;;15.70;3.08;;;;;;;22.79;41.86;101980.88;16143599;19;129506;-62
2022/07/14 06:11:07;;;;;;;14.60;3.10;;;;;;;22.80;41.76;101985.34;16145828;19;129367;-62
2022/07/14 06:16:29;;;;;;;19.20;3.28;;;;;;;22.76;42.00;101984.19;16146710;19;128852;-63
2022/07/14 06:21:51;;;;;;;18.45;3.17;;;;;;;22.71;41.41;101976.53;16148206;19;129880;-62
2022/07/14 06:27:13;;;;;;;15.80;3.00;;;;;;;22.67;41.82;101970.59;16146337;19;130392;-62
2022/07/14 06:32:39;;;;;;;16.50;3.40;;;;;;;22.69;41.67;101960.06;16144005;19;129864;-63
2022/07/14 06:38:01;;;;;;;15.93;3.55;;;;;;;22.70;41.82;101969.28;16146538;19;129068;-62
2022/07/14 06:43:27;;;;;;;13.15;2.78;;;;;;;22.76;41.93;101961.88;16142186;19;130669;-62
2022/07/14 06:48:49;;;;;;;10.40;2.45;;;;;;;22.82;41.77;101966.44;16142132;19;130997;-60
2022/07/14 06:54:10;;;;;;;15.25;2.85;;;;;;;22.88;42.00;101973.81;16136559;19;128998;-61
2022/07/14 06:59:32;;;;;;;13.23;2.47;;;;;;;22.94;41.96;101964.47;16140711;19;129790;-61
2022/07/14 07:10:40;;;;;;;10.23;2.15;;;;;;;23.02;42.01;101972.41;16142522;19;128841;-61
2022/07/14 07:16:07;;;;;;;10.93;1.95;;;;;;;23.04;41.52;101970.22;16143401;19;130142;-61
2022/07/14 07:21:29;;;;;;;9.30;2.15;;;;;;;23.08;41.70;101969.72;16139132;19;128865;-61
2022/07/14 07:26:50;;;;;;;8.70;2.25;;;;;;;23.09;41.85;101963.03;16141494;19;130209;-61
2022/07/14 07:32:13;;;;;;;6.88;1.50;;;;;;;23.12;41.90;101962.56;16134784;19;129267;-61
2022/07/14 07:37:34;;;;;;;8.75;1.60;;;;;;;23.12;41.29;101955.00;16139902;19;128837;-61
2022/07/14 07:42:56;;;;;;;9.80;2.00;;;;;;;23.14;41.57;101946.41;16139340;19;129120;-60
2022/07/14 07:48:18;;;;;;;5.47;1.30;;;;;;;23.16;41.66;101956.22;16139246;19;129121;-61
2022/07/14 07:53:43;;;;;;;6.43;1.55;;;;;;;23.17;41.89;101941.16;16136058;19;129592;-61
2022/07/14 07:59:05;;;;;;;5.13;1.40;;;;;;;23.20;41.43;101931.41;16139318;19;129634;-60
2022/07/14 08:04:27;;;;;;;3.88;1.13;;;;;;;23.21;42.04;101930.31;16136869;19;129888;-60
2022/07/14 08:09:49;;;;;;;6.43;1.40;;;;;;;23.21;41.74;101913.56;16138540;19;129278;-60
2022/07/14 08:15:20;;;;;;;4.15;1.25;;;;;;;23.24;41.75;101915.00;16131961;19;129443;-60
2022/07/14 08:20:41;;;;;;;8.18;1.20;;;;;;;23.24;41.68;101901.91;16136301;19;131135;-60
2022/07/14 08:26:03;;;;;;;3.90;1.15;;;;;;;23.25;41.67;101906.41;16135855;19;129190;-60
2022/07/14 08:31:25;;;;;;;5.45;1.10;;;;;;;23.26;41.20;101912.81;16131457;19;129891;-60
2022/07/14 08:36:48;;;;;;;3.55;0.93;;;;;;;23.27;41.52;101912.53;16138408;19;129671;-61
2022/07/14 08:42:21;;;;;;;5.75;1.17;;;;;;;23.28;41.45;101914.22;16137022;19;130280;-61
2022/07/14 08:47:44;;;;;;;5.25;1.17;;;;;;;23.30;41.84;101920.41;16136775;19;129413;-61
2022/07/14 08:53:08;;;;;;;6.07;0.93;;;;;;;23.31;41.35;101922.09;16133202;19;129361;-61
2022/07/14 08:58:30;;;;;;;5.32;1.08;;;;;;;23.30;41.59;101917.63;16132309;19;129596;-61
2022/07/14 09:03:53;;;;;;;3.58;0.90;;;;;;;23.30;41.43;101920.41;16133076;19;129124;-60
2022/07/14 09:09:34;;;;;;;2.72;1.00;;;;;;;23.32;41.43;101923.81;16134918;19;129252;-60
2022/07/14 09:20:37;;;;;;;3.72;1.02;;;;;;;23.31;41.28;101919.31;16143619;19;129858;-60
2022/07/14 09:26:19;;;;;;;4.10;0.93;;;;;;;23.32;40.88;101914.59;16150788;19;130395;-60
2022/07/14 09:31:41;;;;;;;3.22;1.00;;;;;;;23.31;41.29;101926.88;16141321;19;129456;-60
2022/07/14 09:37:11;;;;;;;5.32;1.00;;;;;;;23.32;40.95;101921.00;16148091;19;129138;-60
2022/07/14 09:42:57;;;;;;;3.85;0.80;;;;;;;23.34;40.66;101913.22;16148737;19;130074;-60
2022/07/14 09:48:20;;;;;;;6.13;0.97;;;;;;;23.33;40.65;101914.34;16146988;19;129328;-61
2022/07/14 09:53:42;;;;;;;2.88;0.65;;;;;;;23.35;41.00;101914.06;16144768;19;128962;-60
2022/07/14 09:59:04;;;;;;;2.58;0.73;;;;;;;23.35;40.81;101920.50;16142230;19;129111;-60
2022/07/14 10:04:25;;;;;;;2.33;0.68;;;;;;;23.37;40.71;101917.44;16145782;19;130238;-60
2022/07/14 10:10:15;;;;;;;3.47;0.90;;;;;;;23.40;40.79;101918.88;16144282;19;129300;-60
2022/07/14 10:15:38;;;;;;;4.63;0.90;;;;;;;23.39;40.87;101920.84;16138908;19;130397;-61
2022/07/14 10:21:01;;;;;;;4.35;0.88;;;;;;;23.40;40.51;101918.88;16144026;19;129741;-60
2022/07/14 10:26:24;;;;;;;2.92;0.60;;;;;;;23.40;40.38;101921.66;16142958;19;130804;-60
2022/07/14 10:32:04;;;;;;;2.47;0.63;;;;;;;23.41;40.08;101929.81;16137234;19;132501;-60
2022/07/14 10:37:39;;;;;;;3.45;0.80;;;;;;;23.42;40.04;101937.09;16138900;19;129733;-60
2022/07/14 10:43:16;;;;;;;1.70;0.47;;;;;;;23.43;39.64;101936.00;16142328;19;129113;-61
2022/07/14 10:48:39;;;;;;;2.55;0.50;;;;;;;23.43;39.81;101943.50;16143765;19;129800;-60
2022/07/14 10:54:10;;;;;;;2.83;0.77;;;;;;;23.43;39.75;101940.72;16136899;19;129425;-60
2022/07/14 10:59:53;;;;;;;1.88;0.70;;;;;;;23.43;39.66;101944.38;16137510;19;130487;-60
2022/07/14 11:05:14;;;;;;;1.85;0.82;;;;;;;23.43;40.11;101941.59;16139890;19;130277;-61
2022/07/14 11:10:36;;;;;;;2.55;0.80;;;;;;;23.44;40.24;101950.78;16139146;19;129477;-60
2022/07/14 11:16:02;;;;;;;2.45;0.90;;;;;;;23.45;39.71;101952.47;16134542;19;129751;-60
2022/07/14 11:21:24;;;;;;;1.67;0.40;;;;;;;23.44;40.06;101940.47;16139847;19;130166;-60
2022/07/14 11:26:50;;;;;;;1.88;0.50;;;;;;;23.45;39.62;101932.94;16139170;19;130808;-60
2022/07/14 11:32:30;;;;;;;;;;;;;;;23.43;40.16;101932.34;16136410;19;128916;-60
2022/07/14 11:38:22;;;;;;;3.70;0.80;;;;;;;23.46;39.93;101929.03;16139313;19;129419;-60
2022/07/14 11:43:50;;;;;;;1.95;0.57;;;;;;;23.46;40.13;101931.84;16136616;19;128973;-60
2022/07/14 11:49:21;;;;;;;2.20;0.60;;;;;;;23.46;39.82;101932.66;16138242;19;130293;-60
2022/07/14 11:54:43;;;;;;;1.40;0.47;;;;;;;23.46;39.83;101931.84;16133514;19;130210;-61
2022/07/14 12:00:09;;;;;;;1.73;0.50;;;;;;;23.47;39.79;101936.31;16136946;19;129289;-62
2022/07/14 12:05:32;;;;;;;4.32;0.80;;;;;;;23.48;39.57;101921.25;16140015;19;129476;-61
2022/07/14 12:10:59;;;;;;;2.40;0.68;;;;;;;23.49;39.64;101934.13;16137787;19;129239;-61
2022/07/14 12:16:22;;;;;;;7.15;1.00;;;;;;;23.51;39.68;101923.53;16126980;19;129543;-61
2022/07/14 12:21:44;;;;;;;3.58;0.70;;;;;;;23.51;39.85;101929.97;16137190;19;129545;-61
2022/07/14 12:27:09;;;;;;;6.03;1.08;;;;;;;23.51;40.13;101929.09;16133099;19;129864;-62
2022/07/14 12:32:30;;;;;;;3.50;0.77;;;;;;;23.51;39.78;101923.53;16125062;19;129411;-61
2022/07/14 12:37:52;;;;;;;3.35;0.82;;;;;;;23.52;39.91;101922.41;16132697;19;129477;-61
2022/07/14 12:43:37;;;;;;;3.03;0.80;;;;;;;23.51;39.56;101932.75;16135226;19;130369;-62
2022/07/14 12:49:03;;;;;;;2.03;0.70;;;;;;;23.51;39.21;101918.78;16131225;19;128984;-61
2022/07/14 12:54:32;;;;;;;3.25;0.60;;;;;;;23.53;39.40;101924.13;16141165;19;130568;-61
2022/07/14 13:00:15;;;;;;;2.83;0.70;;;;;;;23.51;39.08;101926.31;16146546;19;129470;-62
2022/07/14 13:05:42;;;;;;;2.15;0.73;;;;;;;23.53;38.86;101921.31;16148935;19;129328;-61
2022/07/14 13:11:09;;;;;;;4.93;1.00;;;;;;;23.56;39.25;101920.00;16150820;19;129220;-61
2022/07/14 13:16:31;;;;;;;5.35;1.05;;;;;;;23.57;39.25;101924.47;16143851;19;129442;-61
2022/07/14 13:22:04;;;;;;;3.28;0.73;;;;;;;23.60;38.87;101933.22;16149657;19;129396;-61
2022/07/14 13:27:27;;;;;;;5.20;0.90;;;;;;;23.60;38.92;101937.94;16146817;19;129312;-61
2022/07/14 13:32:49;;;;;;;3.20;0.90;;;;;;;23.61;38.69;101936.84;16147487;19;128895;-61
2022/07/14 13:38:11;;;;;;;2.45;0.98;;;;;;;23.61;38.94;101945.22;16143301;19;129711;-61
2022/07/14 13:43:33;;;;;;;3.92;0.80;;;;;;;23.60;38.90;101947.19;16148249;19;131610;-62
2022/07/14 13:48:55;;;;;;;2.85;0.90;;;;;;;23.61;38.63;101940.50;16146575;19;129510;-61
2022/07/14 13:54:17;;;;;;;3.15;0.98;;;;;;;23.61;38.65;101943.28;16145756;19;129455;-61
2022/07/14 13:59:39;;;;;;;3.60;0.90;;;;;;;23.62;38.53;101942.19;16143763;19;132613;-60
2022/07/14 14:05:01;;;;;;;3.35;0.88;;;;;;;23.62;38.50;101939.41;16143727;19;129612;-62
2022/07/14 14:10:23;;;;;;;2.58;0.77;;;;;;;23.63;38.24;101943.84;16145822;19;129372;-61
2022/07/14 14:15:45;;;;;;;3.08;0.90;;;;;;;23.63;38.23;101941.06;16143019;19;129493;-61
2022/07/14 14:21:08;;;;;;;4.00;0.90;;;;;;;23.62;38.23;101944.97;16143653;19;129093;-62
2022/07/14 14:26:30;;;;;;;3.13;0.90;;;;;;;23.62;38.33;101942.19;16145009;19;129382;-61
2022/07/14 14:31:58;;;;;;;1.25;0.65;;;;;;;23.63;38.44;101943.84;16139176;19;130516;-61
2022/07/14 14:37:20;;;;;;;3.53;0.90;;;;;;;23.65;38.43;101946.41;16145366;19;129615;-62
2022/07/14 14:42:42;;;;;;;4.13;0.98;;;;;;;23.64;37.75;101947.50;16146185;19;129497;-61
2022/07/14 14:48:04;;;;;;;6.85;1.33;;;;;;;23.64;37.87;101939.97;16142913;19;128982;-62
2022/07/14 14:53:26;;;;;;;2.10;0.70;;;;;;;23.64;37.96;101945.53;16143267;19;129308;-62
2022/07/14 14:58:48;;;;;;;2.65;0.80;;;;;;;23.66;38.14;101954.53;16143893;19;129319;-61
2022/07/14 15:04:10;;;;;;;6.85;1.23;;;;;;;23.65;37.80;101955.63;16141138;19;128998;-63
2022/07/14 15:09:32;;;;;;;2.40;0.93;;;;;;;23.65;37.67;101952.81;16136476;19;128994;-61
2022/07/14 15:14:54;;;;;;;3.50;1.00;;;;;;;23.65;37.55;101952.81;16138210;19;129822;-61
2022/07/14 15:20:16;;;;;;;3.13;0.85;;;;;;;23.66;37.75;101959.28;16143971;19;131607;-62
2022/07/14 15:25:38;;;;;;;3.60;1.17;;;;;;;23.66;37.76;101965.69;16140666;19;129034;-61
2022/07/14 15:31:00;;;;;;;3.92;0.80;;;;;;;23.68;37.58;101956.22;16138251;19;129563;-61
2022/07/14 15:36:31;;;;;;;4.25;1.40;;;;;;;23.67;37.72;101963.75;16136248;19;129742;-61
2022/07/14 15:41:52;;;;;;;6.57;1.08;;;;;;;23.64;37.96;101953.09;16140801;19;129354;-62
2022/07/14 15:47:14;;;;;;;2.78;1.02;;;;;;;23.65;37.96;101952.81;16136984;19;129993;-62
2022/07/14 15:52:37;;;;;;;4.78;1.02;;;;;;;23.64;38.22;101956.72;16136992;19;130676;-61
2022/07/14 15:57:59;;;;;;;3.70;0.82;;;;;;;23.64;37.69;101950.31;16135669;19;130132;-62
2022/07/14 16:03:20;;;;;;;2.05;1.00;;;;;;;23.64;37.85;101953.94;16134522;19;130267;-62
2022/07/14 16:08:42;;;;;;;4.40;1.10;;;;;;;23.64;37.98;101945.53;16138338;19;129256;-62
2022/07/14 16:14:04;;;;;;;3.80;0.80;;;;;;;23.65;38.08;101941.66;16137139;19;129758;-62
2022/07/14 16:19:26;;;;;;;2.67;0.80;;;;;;;23.66;38.15;101937.75;16137985;19;129536;-62
2022/07/14 16:24:47;;;;;;;2.17;1.00;;;;;;;23.66;37.99;101940.56;16138946;19;130396;-62
2022/07/14 16:30:10;;;;;;;1.55;0.65;;;;;;;23.68;38.02;101939.44;16152432;19;130135;-62
2022/07/14 16:35:31;;;;;;;3.30;0.52;;;;;;;23.68;37.79;101939.44;16154979;19;128920;-61
2022/07/14 16:40:53;;;;;;;2.63;0.80;;;;;;;23.68;38.05;101940.31;16155184;19;129336;-62
2022/07/14 16:46:17;;;;;;;3.65;1.00;;;;;;;23.72;37.97;101946.22;16153711;19;129310;-62
2022/07/14 16:51:50;;;;;;;6.00;0.77;;;;;;;23.72;37.25;101949.03;16152616;19;130836;-62
2022/07/14 16:57:12;;;;;;;3.53;0.82;;;;;;;23.73;37.76;101950.72;16207743;19;130554;-62
2022/07/14 17:02:34;;;;;;;5.40;0.70;;;;;;;23.75;37.21;101962.50;16215987;19;128681;-62
2022/07/14 17:08:16;;;;;;;6.97;1.00;;;;;;;23.74;36.86;101963.59;16227084;19;128016;-62
2022/07/14 17:13:38;;;;;;;5.03;1.13;;;;;;;23.77;36.88;101977.03;16226755;19;129376;-62
2022/07/14 17:19:03;;;;;;;8.88;1.17;;;;;;;23.78;36.76;101979.56;16225138;19;128060;-63
2022/07/14 17:24:25;;;;;;;12.05;1.75;;;;;;;23.78;36.58;101973.13;16234612;19;128739;-63
2022/07/14 17:29:47;;;;;;;7.80;1.05;;;;;;;23.79;36.89;101974.81;16232640;19;128669;-63
2022/07/14 17:35:09;;;;;;;11.93;1.73;;;;;;;23.78;36.85;101978.72;16179376;19;129684;-62
2022/07/14 17:40:31;;;;;;;5.82;1.17;;;;;;;23.78;36.93;101987.97;16153215;19;129030;-63
2022/07/14 17:45:53;;;;;;;10.15;1.23;;;;;;;23.78;36.76;101992.69;16144232;19;129820;-62
2022/07/14 17:56:56;;;;;;;9.25;1.00;;;;;;;23.78;36.35;101995.47;16153971;19;129411;-62
2022/07/14 18:02:18;;;;;;;16.65;1.38;;;;;;;23.75;36.16;102008.03;16142765;19;130088;-63
2022/07/14 18:07:40;;;;;;;9.65;0.95;;;;;;;23.77;36.09;102021.72;16145989;19;129806;-63
2022/07/14 18:13:02;;;;;;;9.18;1.15;;;;;;;23.76;36.10;102017.25;16149777;19;130151;-63
2022/07/14 18:18:24;;;;;;;4.85;1.23;;;;;;;23.76;36.38;102026.47;16146226;19;128842;-63
2022/07/14 18:23:46;;;;;;;7.63;0.88;;;;;;;23.77;36.16;102044.94;16146336;19;128907;-61
2022/07/14 18:29:09;;;;;;;11.38;1.15;;;;;;;23.77;36.24;102041.28;16146396;19;129331;-66
2022/07/14 18:34:31;;;;;;;7.53;0.82;;;;;;;23.76;35.92;102051.63;16138324;19;131518;-67
2022/07/14 18:39:53;;;;;;;3.85;1.00;;;;;;;23.70;35.53;102043.41;16146239;19;129211;-66
2022/07/14 18:50:55;;;;;;;9.45;0.93;;;;;;;23.60;35.21;102053.31;16143886;19;129951;-68
2022/07/14 18:56:18;;;;;;;3.75;1.10;;;;;;;23.60;35.41;102061.72;16142231;19;130021;-66
2022/07/14 19:01:40;;;;;;;6.35;1.55;;;;;;;23.57;35.39;102059.38;16140502;19;129612;-67
2022/07/14 19:07:02;;;;;;;8.60;1.60;;;;;;;23.59;35.11;102064.72;16142122;19;129783;-66
2022/07/14 19:12:24;;;;;;;9.82;1.50;;;;;;;23.60;35.64;102067.28;16143242;19;129694;-67
2022/07/14 19:17:46;;;;;;;8.02;1.60;;;;;;;23.49;34.68;102070.97;16139213;19;129309;-65
2022/07/14 19:23:08;;;;;;;7.00;1.52;;;;;;;23.33;34.39;102075.41;16143817;19;129053;-63
2022/07/14 19:28:30;;;;;;;7.07;1.63;;;;;;;23.20;34.86;102079.38;16141311;19;129221;-63
2022/07/14 19:33:51;;;;;;;6.00;1.23;;;;;;;23.11;34.59;102078.91;16136741;19;130949;-63
2022/07/14 19:39:13;;;;;;;4.93;1.30;;;;;;;23.09;35.13;102077.47;16140105;19;128924;-62
2022/07/14 19:44:35;;;;;;;5.53;1.05;;;;;;;23.12;35.12;102089.00;16111911;19;130804;-63
2022/07/14 19:49:57;;;;;;;15.45;4.07;;;;;;;23.17;35.11;102096.63;16136738;19;129756;-57
2022/07/14 19:55:20;;;;;;;13.35;4.18;;;;;;;23.25;35.14;102098.16;16136460;19;129459;-62
2022/07/14 20:00:42;;;;;;;41.05;12.40;;;;;;;23.29;35.50;102111.38;16133844;19;129734;-60
2022/07/14 20:06:24;;;;;;;20.40;7.28;;;;;;;23.34;35.82;102119.84;16136824;19;129515;-63
2022/07/14 20:11:47;;;;;;;17.17;5.50;;;;;;;23.34;35.51;102119.84;16137787;19;129486;-61
2022/07/14 20:17:08;;;;;;;17.85;4.38;;;;;;;23.34;35.69;102122.66;16103013;19;129703;-62
2022/07/14 20:22:30;;;;;;;10.93;2.78;;;;;;;23.32;35.31;102122.06;16128157;19;130744;-62
2022/07/14 20:33:32;;;;;;;10.20;2.60;;;;;;;23.30;35.01;102131.78;16128001;19;129680;-63
2022/07/14 20:38:54;;;;;;;13.18;2.58;;;;;;;23.30;35.13;102135.41;16095797;19;129957;-66
2022/07/14 20:44:16;;;;;;;8.95;1.60;;;;;;;23.31;34.96;102136.28;16109568;19;130160;-65
2022/07/14 20:49:41;;;;;;;9.70;1.85;;;;;;;23.31;34.83;102133.47;16127305;19;130011;-63
2022/07/14 20:55:03;;;;;;;5.33;1.30;;;;;;;23.33;35.28;102145.22;16130260;19;130197;-64
2022/07/14 21:00:25;;;;;;;5.20;1.33;;;;;;;23.35;34.93;102149.47;16131880;19;129721;-64
2022/07/14 21:05:48;;;;;;;6.10;1.50;;;;;;;23.35;35.25;102149.47;16133889;19;130347;-64
2022/07/14 21:11:09;;;;;;;8.73;1.50;;;;;;;23.35;35.65;102155.06;16134092;19;129314;-64
2022/07/14 21:16:33;;;;;;;4.35;1.30;;;;;;;23.35;35.62;102155.06;16144512;19;129341;-64
2022/07/14 21:21:55;;;;;;;6.30;1.10;;;;;;;23.35;35.14;102163.44;16147592;19;129095;-64
2022/07/14 21:27:18;;;;;;;2.97;0.77;;;;;;;23.34;35.47;102167.31;16148306;19;129995;-64
2022/07/14 21:32:40;;;;;;;2.67;0.68;;;;;;;23.34;35.55;102164.53;16147194;19;129529;-64
2022/07/14 21:38:02;;;;;;;2.70;0.95;;;;;;;23.34;35.27;102170.13;16144565;19;130500;-64
2022/07/14 21:43:25;;;;;;;5.85;1.00;;;;;;;23.33;35.51;102168.44;16149819;19;129238;-64
2022/07/14 21:48:47;;;;;;;5.30;0.90;;;;;;;23.34;35.73;102181.28;16147635;19;129409;-64
2022/07/14 21:54:09;;;;;;;1.65;0.70;;;;;;;23.33;35.86;102187.09;16146387;19;129127;-64
2022/07/14 21:59:31;;;;;;;3.10;0.80;;;;;;;23.32;35.85;102189.06;16171579;19;129437;-64
2022/07/14 22:04:52;;;;;;;2.17;0.70;;;;;;;23.31;35.76;102192.94;16229061;19;129414;-64
2022/07/14 22:10:14;;;;;;;3.88;0.70;;;;;;;23.30;36.26;102199.63;16230305;19;130005;-63
2022/07/14 22:15:36;;;;;;;2.70;1.10;;;;;;;23.29;36.12;102195.13;16227357;19;129789;-63
2022/07/14 22:20:58;;;;;;;2.20;0.82;;;;;;;23.29;35.88;102192.34;16227857;19;127925;-63
2022/07/14 22:26:20;;;;;;;1.98;0.80;;;;;;;23.29;36.12;102200.72;16225815;19;129162;-64
2022/07/14 22:31:42;;;;;;;3.20;0.60;;;;;;;23.28;36.49;102218.56;16223300;19;129424;-64
2022/07/14 22:37:04;;;;;;;3.20;0.90;;;;;;;23.27;36.34;102214.06;16222976;19;128018;-63
2022/07/14 22:42:26;;;;;;;2.45;0.95;;;;;;;23.26;36.32;102218.00;16225021;19;128528;-64
2022/07/14 22:47:48;;;;;;;3.40;0.80;;;;;;;23.26;36.33;102223.56;16225654;19;129797;-63
2022/07/14 22:53:10;;;;;;;3.22;0.50;;;;;;;23.24;36.76;102217.38;16225912;19;130849;-62
2022/07/14 22:58:33;;;;;;;2.47;0.80;;;;;;;23.23;36.38;102221.28;16219971;19;128240;-63
2022/07/14 23:03:54;;;;;;;3.13;0.50;;;;;;;23.23;36.62;102212.88;16223115;19;128154;-63
2022/07/14 23:09:16;;;;;;;2.90;0.68;;;;;;;23.22;36.68;102211.19;16223085;19;128171;-63
2022/07/14 23:15:31;;;;;;;1.42;0.45;;;;;;;23.22;36.65;102222.34;16223437;19;128931;-63
2022/07/14 23:20:26;;;;;;;1.75;0.50;;;;;;;23.22;36.89;102222.34;16224525;19;128318;-63
2022/07/14 23:25:48;;;;;;;2.47;0.50;;;;;;;23.21;37.10;102223.44;16222338;19;128270;-64
2022/07/14 23:31:11;;;;;;;2.08;0.50;;;;;;;23.20;37.05;102227.34;16220372;19;128042;-64
2022/07/14 23:36:33;;;;;;;4.22;0.88;;;;;;;23.18;36.72;102238.75;16199997;19;129226;-60
2022/07/14 23:41:56;;;;;;;2.53;0.70;;;;;;;23.19;36.79;102234.00;16141970;19;129227;-62
2022/07/14 23:47:17;;;;;;;1.55;0.52;;;;;;;23.19;37.04;102234.00;16138979;19;129408;-64
2022/07/14 23:52:41;;;;;;;1.08;0.40;;;;;;;23.22;36.89;102236.31;16139258;19;129535;-62
2022/07/14 23:58:03;;;;;;;1.60;0.40;;;;;;;23.25;37.15;102238.63;16127969;19;130055;-66
